Time;durP1;ratioP1;P1;durP2;ratioP2;P2;SDS_P1;SDS_P2;PMS_P1;PMS_P2;Temp;Humidity;BMP_temperature;BMP_pressure;BME280_temperature;BME280_humidity;BME280_pressure;Samples;Min_cycle;Max_cycle;Signal;HPM_P1;HPM_P2
2023/04/04 00:00:14;;;;;;;5.07;2.97;;;;;;;4.56;79.75;103029.88;4912611;29;20090;-88
2023/04/04 00:02:39;;;;;;;5.78;3.40;;;;;;;4.62;79.26;103028.75;4925285;29;20036;-88
2023/04/04 00:05:06;;;;;;;6.60;3.65;;;;;;;4.58;79.62;103035.97;4928426;29;20050;-87
2023/04/04 00:07:32;;;;;;;6.30;3.97;;;;;;;4.48;80.05;103022.97;4918894;29;20103;-88
2023/04/04 00:09:57;;;;;;;5.35;3.88;;;;;;;4.45;79.95;103023.53;4923325;29;20058;-87
2023/04/04 00:12:23;;;;;;;5.35;3.72;;;;;;;4.51;80.00;103021.56;4922682;29;20040;-87
2023/04/04 00:14:49;;;;;;;6.82;3.08;;;;;;;4.46;80.44;103023.25;4904361;29;20158;-88
2023/04/04 00:17:15;;;;;;;8.35;4.38;;;;;;;4.52;80.31;103014.91;4901974;29;20143;-88
2023/04/04 00:19:40;;;;;;;6.25;3.13;;;;;;;4.48;80.54;103020.19;4922082;29;20031;-87
2023/04/04 00:22:06;;;;;;;5.68;3.30;;;;;;;4.45;80.13;103018.00;4919835;29;20037;-88
2023/04/04 00:24:31;;;;;;;5.38;3.92;;;;;;;4.42;80.74;102997.19;4922625;29;20494;-88
2023/04/04 00:26:57;;;;;;;6.00;3.53;;;;;;;4.41;80.50;103014.94;4920513;29;20039;-88
2023/04/04 00:29:22;;;;;;;11.55;3.95;;;;;;;4.36;81.04;103005.81;4921571;29;20162;-88
2023/04/04 00:31:47;;;;;;;5.70;4.00;;;;;;;4.33;80.66;103001.66;4904631;29;20094;-88
2023/04/04 00:34:13;;;;;;;8.60;4.13;;;;;;;4.27;81.20;103002.81;4923060;29;20028;-88
2023/04/04 00:36:38;;;;;;;9.15;4.13;;;;;;;4.16;81.54;103002.00;4922280;29;20119;-88
2023/04/04 00:39:03;;;;;;;6.90;3.58;;;;;;;4.26;81.88;103012.25;4921207;29;20446;-87
2023/04/04 00:41:29;;;;;;;5.70;4.20;;;;;;;4.30;80.96;103012.50;4919149;29;20107;-88
2023/04/04 00:43:55;;;;;;;8.15;3.92;;;;;;;4.30;81.38;103013.34;4907379;29;20028;-88
2023/04/04 00:46:22;;;;;;;9.52;4.95;;;;;;;4.28;82.05;103013.63;4908940;29;20031;-88
2023/04/04 00:48:48;;;;;;;6.47;3.90;;;;;;;4.22;81.96;103009.19;4910687;29;20028;-87
2023/04/04 00:51:14;;;;;;;8.40;4.55;;;;;;;4.17;81.79;103000.88;4926333;29;20368;-88
2023/04/04 00:53:45;;;;;;;10.40;3.67;;;;;;;4.32;81.60;103004.72;4894085;29;20027;-88
2023/04/04 00:56:11;;;;;;;10.52;4.15;;;;;;;4.06;83.01;103002.03;4889913;29;20058;-88
2023/04/04 00:58:36;;;;;;;5.47;3.83;;;;;;;4.19;82.59;103006.97;4895448;29;20481;-88
2023/04/04 01:01:02;;;;;;;5.75;4.13;;;;;;;3.97;83.17;103020.38;4899343;29;20038;-88
2023/04/04 01:03:28;;;;;;;7.18;3.63;;;;;;;4.14;82.80;103012.56;4883085;29;20142;-88
2023/04/04 01:05:54;;;;;;;6.07;3.88;;;;;;;4.15;83.01;103011.41;4902643;29;21594;-88
2023/04/04 01:08:23;;;;;;;5.72;3.70;;;;;;;4.00;83.28;103003.16;4903744;29;20518;-87
2023/04/04 01:10:49;;;;;;;5.80;3.92;;;;;;;4.03;82.88;103008.16;4905290;29;20039;-88
2023/04/04 01:13:15;;;;;;;7.57;4.05;;;;;;;4.10;83.09;103008.69;4913129;29;20221;-88
2023/04/04 01:15:40;;;;;;;5.68;3.47;;;;;;;4.02;83.58;102995.41;4887936;29;20049;-87
2023/04/04 01:18:08;;;;;;;8.13;4.32;;;;;;;4.08;83.17;103000.63;4900436;29;20027;-87
2023/04/04 01:20:39;;;;;;;7.55;4.15;;;;;;;4.13;83.45;103013.66;4901596;29;20027;-88
2023/04/04 01:23:05;;;;;;;9.70;4.82;;;;;;;3.90;84.10;103004.03;4899882;29;20035;-88
2023/04/04 01:25:32;;;;;;;6.68;4.13;;;;;;;3.98;84.26;103008.16;4898315;29;20027;-88
2023/04/04 01:27:59;;;;;;;6.82;4.75;;;;;;;4.05;83.71;103011.47;4912117;29;20060;-88
2023/04/04 01:30:28;;;;;;;9.93;5.50;;;;;;;3.95;84.26;103000.41;4887525;29;20040;-88
2023/04/04 01:33:19;;;;;;;5.07;3.80;;;;;;;4.05;83.95;103008.72;4906524;29;20574;-88
2023/04/04 01:35:52;;;;;;;6.97;4.65;;;;;;;3.96;84.35;103007.59;4884569;29;20429;-88
2023/04/04 01:38:29;;;;;;;9.45;4.13;;;;;;;3.94;83.75;102998.75;4885986;29;20043;-88
2023/04/04 01:41:00;;;;;;;8.07;4.70;;;;;;;3.84;83.91;102992.13;4910938;29;20520;-88
2023/04/04 01:43:25;;;;;;;5.15;3.53;;;;;;;3.80;84.41;102999.34;4919027;29;20039;-88
2023/04/04 01:45:51;;;;;;;7.93;4.18;;;;;;;3.90;83.97;103004.03;4915440;29;20552;-88
2023/04/04 01:48:16;;;;;;;6.30;4.28;;;;;;;3.86;84.37;103008.47;4915772;29;20024;-88
2023/04/04 01:50:41;;;;;;;5.82;3.75;;;;;;;3.81;84.45;103006.53;4914530;29;20056;-88
2023/04/04 01:53:07;;;;;;;9.07;5.25;;;;;;;3.82;84.55;103013.72;4888391;29;20051;-87
2023/04/04 01:55:32;;;;;;;7.35;4.90;;;;;;;3.93;84.19;103003.47;4906987;29;20028;-88
2023/04/04 01:57:59;;;;;;;6.75;4.03;;;;;;;3.84;84.12;103007.91;4927922;29;20130;-88
2023/04/04 02:00:24;;;;;;;8.48;4.53;;;;;;;3.75;84.89;102999.31;4902742;29;20115;-88
2023/04/04 02:02:50;;;;;;;6.47;4.72;;;;;;;3.82;84.25;102999.88;4892797;29;20443;-88
2023/04/04 02:05:15;;;;;;;7.97;4.82;;;;;;;3.80;84.38;103002.09;4910357;29;20036;-88
2023/04/04 02:07:41;;;;;;;8.73;4.28;;;;;;;3.76;83.94;103000.19;4906443;29;20031;-88
2023/04/04 02:10:06;;;;;;;9.00;4.63;;;;;;;3.72;84.51;102997.13;4906694;29;20031;-88
2023/04/04 02:12:32;;;;;;;11.00;5.28;;;;;;;3.67;84.73;102999.91;4920043;29;20120;-88
2023/04/04 02:14:57;;;;;;;10.63;4.90;;;;;;;3.76;84.86;103006.53;4914574;29;20040;-88
2023/04/04 02:17:22;;;;;;;8.73;5.00;;;;;;;3.75;84.61;103009.56;4898090;29;20044;-88
2023/04/04 02:19:48;;;;;;;9.13;5.18;;;;;;;3.73;85.23;103003.50;4908344;29;20035;-87
2023/04/04 02:22:13;;;;;;;10.60;4.15;;;;;;;3.81;84.43;103009.28;4917623;29;20039;-89
2023/04/04 02:24:39;;;;;;;8.45;4.50;;;;;;;3.75;84.93;102998.50;4916847;29;20557;-89
2023/04/04 02:27:05;;;;;;;10.48;4.55;;;;;;;3.66;85.31;102998.25;4913785;29;20795;-89
2023/04/04 02:29:30;;;;;;;11.32;5.65;;;;;;;3.79;84.62;103008.72;4906884;29;20031;-88
2023/04/04 02:31:56;;;;;;;11.70;5.60;;;;;;;3.69;84.45;103000.47;4898675;29;20068;-88
2023/04/04 02:34:21;;;;;;;8.75;4.93;;;;;;;3.68;84.91;103007.09;4905988;29;20031;-88
2023/04/04 02:36:47;;;;;;;8.95;5.10;;;;;;;3.73;85.02;102998.81;4894896;29;20458;-87
2023/04/04 02:39:12;;;;;;;7.53;4.60;;;;;;;3.61;85.59;102995.50;4913131;29;20096;-88
2023/04/04 02:41:37;;;;;;;10.15;4.60;;;;;;;3.65;85.77;102989.09;4917287;29;20043;-88
2023/04/04 02:44:03;;;;;;;9.15;4.43;;;;;;;3.70;85.57;102988.25;4916931;29;20032;-88
2023/04/04 02:46:28;;;;;;;7.75;4.70;;;;;;;3.57;85.11;102986.91;4910892;29;20027;-88
2023/04/04 02:48:53;;;;;;;9.15;4.43;;;;;;;3.67;85.37;102988.84;4915645;29;20031;-88
2023/04/04 02:51:19;;;;;;;8.68;6.28;;;;;;;3.59;85.69;102979.16;4910595;29;20099;-88
2023/04/04 02:53:45;;;;;;;8.23;5.60;;;;;;;3.54;86.09;102972.78;4889334;29;20035;-88
2023/04/04 02:56:11;;;;;;;11.30;4.93;;;;;;;3.53;85.54;102971.13;4925831;29;20036;-88
2023/04/04 02:58:36;;;;;;;8.00;4.72;;;;;;;3.38;85.96;102955.34;4923895;29;20392;-88
2023/04/04 03:01:01;;;;;;;7.20;4.95;;;;;;;3.41;86.01;102963.09;4916068;29;20203;-88
2023/04/04 03:03:27;;;;;;;10.27;4.97;;;;;;;3.28;86.39;102958.94;4907180;29;20032;-88
2023/04/04 03:05:52;;;;;;;9.57;4.65;;;;;;;3.49;85.70;102970.03;4905943;29;21507;-88
2023/04/04 03:08:17;;;;;;;8.30;4.35;;;;;;;3.50;85.27;102966.97;4926660;29;20115;-88
2023/04/04 03:10:44;;;;;;;7.88;5.32;;;;;;;3.39;85.60;102971.66;4926722;29;20059;-88
2023/04/04 03:13:09;;;;;;;8.70;5.10;;;;;;;3.38;85.44;102969.19;4915237;29;21208;-88
2023/04/04 03:15:34;;;;;;;7.43;4.75;;;;;;;3.47;84.80;102962.81;4889618;29;20031;-89
2023/04/04 03:18:02;;;;;;;12.77;6.30;;;;;;;3.39;85.11;102960.59;4885096;29;20039;-88
2023/04/04 03:20:27;;;;;;;11.25;5.07;;;;;;;3.42;84.83;102965.59;4905072;29;20983;-88
2023/04/04 03:22:52;;;;;;;9.77;5.50;;;;;;;3.35;84.98;102967.81;4929755;29;20064;-89
2023/04/04 03:25:18;;;;;;;7.43;4.18;;;;;;;3.28;85.22;102955.38;4903673;29;20522;-89
2023/04/04 03:27:43;;;;;;;8.77;4.72;;;;;;;3.27;85.06;102957.31;4900468;29;20027;-88
2023/04/04 03:30:09;;;;;;;7.93;4.43;;;;;;;3.14;85.11;102939.31;4905078;29;20036;-88
2023/04/04 03:32:36;;;;;;;7.32;4.63;;;;;;;3.12;85.49;102944.31;4924585;29;20039;-88
2023/04/04 03:35:01;;;;;;;8.52;5.57;;;;;;;3.18;85.31;102958.94;4908834;29;20051;-88
2023/04/04 03:37:28;;;;;;;7.45;5.10;;;;;;;3.22;85.14;102960.06;4925092;29;20031;-88
2023/04/04 03:39:54;;;;;;;7.07;4.70;;;;;;;3.24;84.89;102955.06;4928236;29;20050;-87
2023/04/04 03:42:19;;;;;;;9.77;4.57;;;;;;;3.24;84.62;102957.84;4903632;29;20035;-88
2023/04/04 03:44:45;;;;;;;9.50;4.72;;;;;;;3.17;85.14;102962.84;4922616;29;20095;-88
2023/04/04 03:47:10;;;;;;;5.88;4.97;;;;;;;3.11;85.86;102966.72;4904624;29;20023;-88
2023/04/04 03:49:35;;;;;;;10.63;6.13;;;;;;;3.10;85.57;102951.19;4922625;29;20119;-88
2023/04/04 03:52:03;;;;;;;7.72;5.95;;;;;;;3.15;84.83;102959.50;4904703;29;20039;-89
2023/04/04 03:54:29;;;;;;;9.07;5.72;;;;;;;3.09;85.09;102961.44;4928570;29;20385;-88
2023/04/04 03:56:55;;;;;;;6.75;4.85;;;;;;;3.14;85.02;102952.31;4908444;29;22088;-88
2023/04/04 03:59:21;;;;;;;8.45;4.75;;;;;;;3.04;85.40;102955.91;4926310;29;20035;-89
2023/04/04 04:01:47;;;;;;;8.27;5.10;;;;;;;3.03;85.52;102968.91;4926161;29;20496;-89
2023/04/04 04:04:12;;;;;;;8.23;5.13;;;;;;;3.04;84.92;102959.50;4920384;29;20155;-80
2023/04/04 04:06:37;;;;;;;8.35;5.22;;;;;;;3.02;85.33;102960.91;4909664;29;20036;-80
2023/04/04 04:09:03;;;;;;;6.18;5.32;;;;;;;2.99;85.58;102962.28;4917073;29;20081;-80
2023/04/04 04:11:28;;;;;;;9.20;5.05;;;;;;;2.92;85.83;102963.66;4917076;29;20069;-80
2023/04/04 04:13:54;;;;;;;9.25;5.45;;;;;;;2.92;85.26;102956.16;4895113;29;20074;-80
2023/04/04 04:16:21;;;;;;;10.55;5.10;;;;;;;3.00;84.99;102961.16;4911217;29;20059;-80
2023/04/04 04:18:46;;;;;;;13.57;5.90;;;;;;;2.90;85.45;102963.09;4927630;29;20487;-80
2023/04/04 04:21:12;;;;;;;5.75;4.78;;;;;;;2.90;85.16;102957.56;4925301;29;20027;-80
2023/04/04 04:23:37;;;;;;;8.48;5.05;;;;;;;2.82;85.90;102950.63;4910424;29;20090;-80
2023/04/04 04:26:03;;;;;;;8.18;5.55;;;;;;;2.87;85.19;102947.88;4909412;29;20406;-80
2023/04/04 04:28:29;;;;;;;8.75;5.07;;;;;;;2.83;85.46;102955.88;4922356;29;20430;-80
2023/04/04 04:30:54;;;;;;;15.20;5.30;;;;;;;2.82;85.81;102951.44;4921126;29;20082;-80
2023/04/04 04:33:20;;;;;;;11.73;5.13;;;;;;;2.83;85.59;102953.13;4906109;29;20034;-80
2023/04/04 04:35:45;;;;;;;9.57;6.03;;;;;;;2.82;85.29;102959.75;4907328;29;20114;-79
2023/04/04 04:38:11;;;;;;;8.60;5.40;;;;;;;2.80;85.90;102964.75;4904591;29;20035;-80
2023/04/04 04:40:36;;;;;;;8.10;5.55;;;;;;;2.79;85.49;102956.72;4905950;29;20118;-80
2023/04/04 04:43:02;;;;;;;6.50;5.22;;;;;;;2.69;85.92;102946.44;4925586;29;20039;-80
2023/04/04 04:45:27;;;;;;;8.63;5.38;;;;;;;2.71;85.92;102941.47;4922802;29;20054;-80
2023/04/04 04:47:53;;;;;;;9.88;6.47;;;;;;;2.71;85.73;102943.41;4921726;29;20035;-80
2023/04/04 04:50:18;;;;;;;8.57;5.25;;;;;;;2.79;86.33;102962.25;4908065;29;20634;-80
2023/04/04 04:52:44;;;;;;;11.55;6.47;;;;;;;2.77;85.63;102953.38;4903379;29;20024;-79
2023/04/04 04:55:10;;;;;;;10.40;6.05;;;;;;;2.67;86.23;102968.03;4925706;29;20090;-80
2023/04/04 04:57:36;;;;;;;10.23;6.97;;;;;;;2.68;86.86;102971.59;4927683;29;20027;-79
2023/04/04 05:00:03;;;;;;;9.57;5.53;;;;;;;2.74;86.57;102970.50;4916103;29;20036;-80
2023/04/04 05:02:29;;;;;;;8.80;6.10;;;;;;;2.65;86.70;102964.69;4927076;29;20031;-79
2023/04/04 05:04:55;;;;;;;9.55;5.78;;;;;;;2.67;86.40;102964.44;4911356;29;20027;-80
2023/04/04 05:07:21;;;;;;;10.18;5.75;;;;;;;2.64;87.08;102961.09;4906501;29;20529;-79
2023/04/04 05:09:46;;;;;;;7.65;5.53;;;;;;;2.74;87.02;102965.00;4903932;29;20554;-79
2023/04/04 05:12:12;;;;;;;11.30;7.28;;;;;;;2.59;87.09;102966.63;4921994;29;20042;-80
2023/04/04 05:14:37;;;;;;;11.02;6.20;;;;;;;2.64;86.49;102977.69;4928024;29;20474;-79
2023/04/04 05:17:02;;;;;;;16.08;7.57;;;;;;;2.61;87.50;102983.78;4919257;29;20043;-79
2023/04/04 05:19:28;;;;;;;12.25;7.38;;;;;;;2.67;87.92;102984.59;4922072;29;20106;-79
2023/04/04 05:21:53;;;;;;;11.57;6.65;;;;;;;2.57;88.29;102977.13;4928743;29;20169;-79
2023/04/04 05:24:19;;;;;;;12.05;8.27;;;;;;;2.37;88.96;102954.94;4916982;29;20039;-79
2023/04/04 05:26:45;;;;;;;12.25;7.60;;;;;;;2.58;88.28;102966.91;4911654;29;20111;-79
2023/04/04 05:29:11;;;;;;;11.75;7.40;;;;;;;2.52;88.93;102967.97;4912198;29;20031;-79
2023/04/04 05:31:36;;;;;;;11.30;8.32;;;;;;;2.58;88.50;102967.72;4903346;29;20658;-79
2023/04/04 05:34:07;;;;;;;13.02;7.63;;;;;;;2.53;88.31;102970.47;4899728;29;20035;-79
2023/04/04 05:36:33;;;;;;;11.95;7.13;;;;;;;2.60;88.59;102970.22;4903906;29;20102;-79
2023/04/04 05:38:59;;;;;;;12.07;7.50;;;;;;;2.57;88.89;102967.97;4923017;29;20036;-79
2023/04/04 05:41:24;;;;;;;10.25;6.68;;;;;;;2.53;89.02;102970.47;4930518;29;20568;-79
2023/04/04 05:43:50;;;;;;;10.07;6.60;;;;;;;2.56;89.16;102958.88;4904192;29;20122;-79
2023/04/04 05:46:15;;;;;;;7.78;5.95;;;;;;;2.61;89.40;102971.88;4899197;29;20130;-79
2023/04/04 05:48:40;;;;;;;14.07;7.82;;;;;;;2.66;89.51;102969.13;4908531;29;20019;-79
2023/04/04 05:51:06;;;;;;;11.98;7.10;;;;;;;2.62;89.61;102974.38;4909048;29;20075;-79
2023/04/04 05:53:31;;;;;;;9.65;6.82;;;;;;;2.60;89.55;102968.28;4927363;29;20031;-79
2023/04/04 05:55:57;;;;;;;9.10;6.40;;;;;;;2.69;90.14;102984.34;4916308;29;20035;-79
2023/04/04 05:58:23;;;;;;;9.35;5.72;;;;;;;2.65;89.90;102979.34;4905383;29;20091;-79
2023/04/04 06:00:48;;;;;;;11.48;6.35;;;;;;;2.63;89.67;102973.25;4895346;29;20738;-79
2023/04/04 06:03:13;;;;;;;9.63;6.00;;;;;;;2.70;90.26;102980.47;4909675;29;20028;-79
2023/04/04 06:05:42;;;;;;;14.50;6.72;;;;;;;2.78;89.41;102988.22;4906409;29;20402;-79
2023/04/04 06:08:07;;;;;;;8.98;6.35;;;;;;;3.16;94.37;102988.84;4921902;29;20019;-76
2023/04/04 06:10:32;;;;;;;10.15;6.55;;;;;;;3.05;90.96;103005.41;4923548;29;20078;-77
2023/04/04 06:12:57;;;;;;;13.27;6.95;;;;;;;2.88;90.77;103004.84;4907337;29;20043;-77
2023/04/04 06:15:23;;;;;;;9.73;6.05;;;;;;;2.83;91.02;102996.56;4922102;29;20047;-78
2023/04/04 06:17:48;;;;;;;13.95;8.93;;;;;;;2.83;90.13;102996.56;4922779;29;20082;-78
2023/04/04 06:20:14;;;;;;;12.73;7.13;;;;;;;2.93;90.61;103002.09;4929394;29;20147;-79
2023/04/04 06:22:39;;;;;;;10.25;6.07;;;;;;;2.94;90.17;103003.75;4932893;29;20126;-78
2023/04/04 06:25:05;;;;;;;8.07;5.72;;;;;;;2.81;90.79;102998.75;4926097;29;20379;-78
2023/04/04 06:27:30;;;;;;;9.05;5.60;;;;;;;2.77;91.70;102992.94;4927090;29;20273;-78
2023/04/04 06:29:56;;;;;;;9.80;5.70;;;;;;;2.88;90.43;102991.03;4931432;29;20039;-78
2023/04/04 06:32:21;;;;;;;8.80;5.70;;;;;;;2.80;91.55;102984.09;4904520;29;20039;-79
2023/04/04 06:34:46;;;;;;;12.23;7.88;;;;;;;2.88;90.72;102976.38;4913204;29;20042;-78
2023/04/04 06:37:12;;;;;;;8.07;5.28;;;;;;;2.99;90.47;102987.19;4930071;29;20483;-79
2023/04/04 06:39:37;;;;;;;14.15;6.40;;;;;;;2.95;90.57;102988.84;4927376;29;20139;-78
2023/04/04 06:42:02;;;;;;;9.30;6.93;;;;;;;2.88;90.88;102985.50;4929286;29;20035;-78
2023/04/04 06:44:28;;;;;;;10.98;6.43;;;;;;;3.01;90.78;102995.19;4910720;29;20039;-79
2023/04/04 06:46:53;;;;;;;9.13;6.05;;;;;;;2.94;91.29;102987.16;4923096;29;20756;-78
2023/04/04 06:49:19;;;;;;;11.15;6.82;;;;;;;3.01;90.74;102987.72;4906836;29;20055;-79
2023/04/04 06:51:45;;;;;;;11.07;6.35;;;;;;;3.14;89.32;102996.59;4921733;29;20100;-80
2023/04/04 06:54:10;;;;;;;9.98;6.43;;;;;;;3.24;88.27;102991.06;4910403;29;20166;-79
2023/04/04 06:56:36;;;;;;;11.55;6.35;;;;;;;3.25;88.14;102992.72;4935094;29;20111;-79
2023/04/04 06:59:01;;;;;;;13.85;6.57;;;;;;;3.25;88.18;103001.84;4919186;29;20032;-79
2023/04/04 07:01:26;;;;;;;13.63;7.13;;;;;;;3.30;88.25;102995.50;4923653;29;20398;-79
2023/04/04 07:03:53;;;;;;;9.00;6.13;;;;;;;3.28;88.53;102997.69;4931474;29;20039;-79
2023/04/04 07:06:20;;;;;;;12.57;7.05;;;;;;;3.34;88.40;102985.53;4910832;29;20051;-79
2023/04/04 07:08:46;;;;;;;8.85;5.82;;;;;;;3.33;88.54;102983.88;4914165;29;20545;-80
2023/04/04 07:11:11;;;;;;;9.57;5.95;;;;;;;3.33;88.65;102975.56;4929884;29;20039;-79
2023/04/04 07:13:36;;;;;;;12.05;5.85;;;;;;;3.37;88.77;102987.75;4932838;29;20146;-79
2023/04/04 07:16:02;;;;;;;10.60;5.90;;;;;;;3.08;90.54;102983.84;4923890;29;20032;-79
2023/04/04 07:18:27;;;;;;;13.98;6.32;;;;;;;3.04;89.64;102980.81;4932498;29;20043;-79
2023/04/04 07:20:52;;;;;;;8.68;5.85;;;;;;;3.20;87.92;102990.78;4911138;29;20115;-79
2023/04/04 07:23:18;;;;;;;12.73;6.28;;;;;;;3.16;87.48;102998.00;4928971;29;20138;-79
2023/04/04 07:25:43;;;;;;;8.70;5.13;;;;;;;3.24;87.57;102982.75;4916076;29;20039;-79
2023/04/04 07:28:09;;;;;;;8.85;5.63;;;;;;;3.35;86.30;102992.75;4913980;29;20058;-79
2023/04/04 07:30:34;;;;;;;10.05;5.45;;;;;;;3.45;86.09;102989.94;4927804;29;20497;-79
2023/04/04 07:33:00;;;;;;;15.55;6.00;;;;;;;3.32;85.74;102995.22;4928722;29;20039;-79
2023/04/04 07:35:25;;;;;;;9.57;5.63;;;;;;;3.37;86.25;102987.75;4930765;29;20094;-79
2023/04/04 07:37:51;;;;;;;9.20;4.97;;;;;;;3.97;85.67;103003.75;4916328;29;20032;-79
2023/04/04 07:40:17;;;;;;;7.80;4.68;;;;;;;3.86;86.13;102997.38;4922374;29;20398;-78
2023/04/04 07:42:44;;;;;;;11.23;5.93;;;;;;;3.77;86.30;102988.78;4932308;29;20347;-79
2023/04/04 07:45:10;;;;;;;7.82;5.05;;;;;;;3.75;85.97;102996.56;4929914;29;20032;-79
2023/04/04 07:47:36;;;;;;;9.95;4.53;;;;;;;3.66;85.18;102989.94;4914575;29;20086;-78
2023/04/04 07:50:02;;;;;;;10.93;4.75;;;;;;;3.77;84.45;102988.78;4915318;29;20075;-79
2023/04/04 07:52:28;;;;;;;6.88;4.65;;;;;;;3.79;83.90;102992.13;4905771;29;20056;-78
2023/04/04 07:54:54;;;;;;;5.78;4.63;;;;;;;3.81;84.20;102989.06;4930178;29;20039;-79
2023/04/04 07:57:19;;;;;;;9.43;4.60;;;;;;;3.82;84.13;102985.22;4906009;29;20024;-79
2023/04/04 07:59:44;;;;;;;8.38;4.60;;;;;;;3.91;84.13;102988.22;4905963;29;20062;-78
2023/04/04 08:02:10;;;;;;;8.05;5.13;;;;;;;3.92;84.84;102974.09;4927136;29;20105;-78
2023/04/04 08:04:36;;;;;;;16.98;5.30;;;;;;;3.91;84.25;102979.91;4925678;29;20127;-78
2023/04/04 08:07:01;;;;;;;10.40;4.65;;;;;;;3.78;85.08;102978.56;4923771;29;20032;-79
2023/04/04 08:09:32;;;;;;;8.23;5.30;;;;;;;3.83;85.97;102975.78;4927580;29;20059;-78
2023/04/04 08:11:58;;;;;;;9.27;4.38;;;;;;;3.97;84.10;102978.78;4926311;29;20039;-78
2023/04/04 08:14:23;;;;;;;9.10;4.70;;;;;;;3.99;84.65;102973.81;4931098;29;20187;-79
2023/04/04 08:16:48;;;;;;;12.93;5.45;;;;;;;4.01;85.82;102982.66;4930335;29;20490;-78
2023/04/04 08:19:15;;;;;;;6.50;4.07;;;;;;;4.09;82.44;102979.31;4928802;29;20114;-78
2023/04/04 08:21:41;;;;;;;11.02;4.65;;;;;;;4.13;82.43;102974.03;4927664;29;20034;-78
2023/04/04 08:24:07;;;;;;;8.85;4.85;;;;;;;4.23;82.51;102969.25;4914774;29;20457;-78
2023/04/04 08:26:32;;;;;;;8.65;5.00;;;;;;;4.42;82.99;102976.94;4931519;29;20118;-78
2023/04/04 08:28:57;;;;;;;6.22;4.45;;;;;;;4.51;81.74;102972.47;4926567;29;20051;-78
2023/04/04 08:31:23;;;;;;;10.20;5.20;;;;;;;4.45;82.84;102981.94;4930181;29;20062;-78
2023/04/04 08:33:48;;;;;;;8.90;4.60;;;;;;;4.61;82.23;102975.19;4929812;29;20035;-78
2023/04/04 08:36:15;;;;;;;5.75;3.45;;;;;;;4.55;77.40;102979.09;4911020;29;20446;-78
2023/04/04 08:38:40;;;;;;;5.10;2.83;;;;;;;4.66;74.16;102972.41;4913466;29;20032;-78
2023/04/04 08:41:05;;;;;;;6.07;2.28;;;;;;;4.58;67.26;102967.44;4926704;29;20042;-78
2023/04/04 08:43:33;;;;;;;7.75;2.42;;;;;;;4.65;66.41;102964.34;4914684;29;20035;-78
2023/04/04 08:46:02;;;;;;;7.93;2.55;;;;;;;4.77;66.45;102964.84;4926347;29;20023;-78
2023/04/04 08:48:29;;;;;;;4.78;2.72;;;;;;;4.82;68.11;102969.53;4922314;29;20020;-78
2023/04/04 08:50:58;;;;;;;4.68;2.28;;;;;;;4.88;65.98;102963.66;4929713;29;20082;-78
2023/04/04 08:53:25;;;;;;;4.38;3.05;;;;;;;5.10;68.56;102967.91;4928451;29;20035;-78
2023/04/04 08:55:53;;;;;;;4.43;2.80;;;;;;;5.06;67.51;102970.47;4913137;29;20497;-78
2023/04/04 08:58:18;;;;;;;9.00;3.08;;;;;;;4.83;66.74;102965.66;4915665;29;20582;-78
2023/04/04 09:00:44;;;;;;;5.60;2.90;;;;;;;5.01;67.42;102967.72;4913553;29;20119;-78
2023/04/04 09:03:36;;;;;;;5.57;2.45;;;;;;;5.01;65.40;102966.88;4927254;29;20399;-78
2023/04/04 09:06:03;;;;;;;7.93;3.40;;;;;;;4.96;65.47;102959.44;4925009;29;20517;-78
2023/04/04 09:08:29;;;;;;;4.30;2.20;;;;;;;5.11;63.60;102949.34;4912716;29;20042;-78
2023/04/04 09:10:55;;;;;;;3.63;1.90;;;;;;;5.04;63.67;102956.03;4907312;29;20557;-78
2023/04/04 09:13:21;;;;;;;9.65;3.28;;;;;;;5.28;61.74;102960.84;4912783;29;20038;-78
2023/04/04 09:15:49;;;;;;;10.07;2.33;;;;;;;5.21;64.27;102952.03;4906008;29;20040;-78
2023/04/04 09:18:15;;;;;;;5.18;2.03;;;;;;;5.14;63.15;102955.13;4929831;29;20032;-78
2023/04/04 09:20:46;;;;;;;8.25;2.72;;;;;;;5.18;62.54;102958.16;4911645;29;20064;-78
2023/04/04 09:23:17;;;;;;;8.60;4.15;;;;;;;5.20;66.85;102953.13;4911699;29;20079;-78
2023/04/04 09:25:49;;;;;;;12.10;4.18;;;;;;;5.25;67.32;102951.16;4913221;29;20558;-78
2023/04/04 09:28:15;;;;;;;5.87;2.33;;;;;;;5.61;66.16;102953.59;4928781;29;20028;-78
2023/04/04 09:30:42;;;;;;;5.20;2.22;;;;;;;5.53;67.24;102950.63;4930759;29;20035;-78
2023/04/04 09:33:10;;;;;;;7.75;2.85;;;;;;;5.49;66.89;102956.75;4912620;29;20086;-78
2023/04/04 09:35:37;;;;;;;6.97;2.80;;;;;;;5.43;66.73;102951.56;4913208;29;20035;-78
2023/04/04 09:38:08;;;;;;;6.45;2.83;;;;;;;5.94;62.93;102958.53;4922298;29;20059;-77
2023/04/04 09:40:35;;;;;;;8.25;2.47;;;;;;;5.82;64.17;102958.94;4911553;29;20028;-78
2023/04/04 09:43:02;;;;;;;5.10;2.53;;;;;;;5.66;63.76;102958.28;4928550;29;20122;-78
2023/04/04 09:45:33;;;;;;;5.43;2.50;;;;;;;5.74;63.17;102962.38;4928159;29;20416;-77
2023/04/04 09:47:59;;;;;;;8.63;3.03;;;;;;;5.84;63.88;102957.53;4930160;29;20597;-78
2023/04/04 09:50:27;;;;;;;6.00;2.30;;;;;;;5.94;61.94;102955.75;4929391;29;20114;-77
2023/04/04 09:52:56;;;;;;;4.05;1.95;;;;;;;6.09;61.38;102950.03;4911125;29;20035;-77
2023/04/04 09:55:30;;;;;;;3.92;2.60;;;;;;;6.33;59.53;102950.03;4928712;29;20581;-78
2023/04/04 09:57:56;;;;;;;6.90;2.50;;;;;;;6.60;58.86;102954.94;4926592;29;20842;-78
2023/04/04 10:00:22;;;;;;;8.85;2.78;;;;;;;6.67;59.08;102947.03;4926417;29;20119;-78
2023/04/04 10:02:48;;;;;;;5.80;3.30;;;;;;;6.55;60.39;102952.22;4925927;29;20031;-78
2023/04/04 10:05:14;;;;;;;5.47;2.63;;;;;;;6.51;60.96;102948.38;4927833;29;20934;-78
2023/04/04 10:07:42;;;;;;;3.75;2.58;;;;;;;6.35;60.10;102938.63;4912963;29;20504;-78
2023/04/04 10:10:09;;;;;;;6.38;2.65;;;;;;;6.46;59.29;102940.94;4931215;29;20036;-78
2023/04/04 10:12:37;;;;;;;8.95;3.65;;;;;;;6.54;59.91;102935.84;4913289;29;20134;-78
2023/04/04 10:15:03;;;;;;;10.63;3.78;;;;;;;6.50;60.35;102942.00;4924144;29;20044;-77
2023/04/04 10:17:35;;;;;;;4.88;2.60;;;;;;;6.58;60.00;102939.66;4927365;29;20040;-77
2023/04/04 10:20:04;;;;;;;10.18;4.28;;;;;;;6.77;61.03;102940.50;4916365;29;20494;-77
2023/04/04 10:22:31;;;;;;;6.20;3.55;;;;;;;6.81;60.10;102935.13;4933008;29;20036;-77
2023/04/04 10:24:57;;;;;;;6.80;3.70;;;;;;;6.74;60.76;102940.28;4913427;29;20087;-78
2023/04/04 10:27:23;;;;;;;4.85;2.70;;;;;;;7.17;59.90;102931.78;4931624;29;20083;-77
2023/04/04 10:29:49;;;;;;;5.47;3.13;;;;;;;7.72;56.14;102932.75;4929615;29;20032;-77
2023/04/04 10:32:21;;;;;;;7.57;4.15;;;;;;;7.84;56.79;102923.88;4930391;29;20067;-78
2023/04/04 10:34:55;;;;;;;8.30;3.22;;;;;;;7.82;56.27;102923.38;4923818;29;20750;-77
2023/04/04 10:37:28;;;;;;;6.35;2.95;;;;;;;8.11;55.85;102916.63;4926060;29;20068;-78
2023/04/04 10:40:13;;;;;;;;;;;;;;;8.27;55.36;102926.31;4912319;29;20045;-77
2023/04/04 10:42:42;;;;;;;6.50;3.25;;;;;;;8.26;55.15;102927.44;4923120;29;19922;-78
2023/04/04 10:45:09;;;;;;;7.28;2.42;;;;;;;8.75;54.59;102925.84;4928706;29;20027;-78
2023/04/04 10:47:35;;;;;;;5.32;3.10;;;;;;;8.15;55.62;102923.25;4931455;29;20055;-78
2023/04/04 10:50:06;;;;;;;7.22;3.50;;;;;;;7.72;56.45;102923.56;4928962;29;20051;-78
2023/04/04 10:52:32;;;;;;;7.13;2.95;;;;;;;7.48;57.08;102918.16;4914079;29;20593;-78
2023/04/04 10:55:02;;;;;;;4.13;2.88;;;;;;;7.98;56.98;102920.25;4925620;29;20035;-79
2023/04/04 10:57:29;;;;;;;8.32;3.80;;;;;;;7.92;55.90;102917.56;4931839;29;20406;-79
2023/04/04 11:00:11;;;;;;;7.57;3.88;;;;;;;7.71;56.23;102905.97;4910380;29;20078;-79
2023/04/04 11:02:45;;;;;;;7.03;3.28;;;;;;;7.78;56.14;102902.81;4930535;29;20114;-79
2023/04/04 11:05:19;;;;;;;7.45;3.35;;;;;;;7.88;54.74;102896.19;4927690;29;20035;-79
2023/04/04 11:07:46;;;;;;;6.35;3.22;;;;;;;7.88;54.92;102897.00;4914700;29;20461;-79
2023/04/04 11:10:20;;;;;;;9.13;3.33;;;;;;;7.68;55.69;102905.81;4914384;29;20059;-79
2023/04/04 11:12:51;;;;;;;6.32;3.17;;;;;;;7.94;55.82;102904.13;4914057;29;20043;-79
2023/04/04 11:15:20;;;;;;;5.63;3.28;;;;;;;8.24;53.57;102896.28;4910982;29;20525;-79
2023/04/04 11:17:51;;;;;;;8.25;4.07;;;;;;;8.85;52.49;102896.00;4928310;29;20639;-79
2023/04/04 11:20:22;;;;;;;9.50;3.45;;;;;;;8.93;53.44;102895.25;4927120;29;20122;-79
2023/04/04 11:23:09;;;;;;;5.90;3.33;;;;;;;8.63;53.27;102894.03;4931980;29;20102;-79
2023/04/04 11:25:40;;;;;;;6.18;3.30;;;;;;;8.51;52.21;102889.00;4914736;29;20094;-79
2023/04/04 11:28:08;;;;;;;5.57;3.42;;;;;;;8.62;53.19;102873.69;4907922;29;20027;-79